Time;durP1;ratioP1;P1;durP2;ratioP2;P2;SDS_P1;SDS_P2;PMS_P1;PMS_P2;Temp;Humidity;BMP_temperature;BMP_pressure;BME280_temperature;BME280_humidity;BME280_pressure;Samples;Min_cycle;Max_cycle;Signal;HPM_P1;HPM_P2
2023/01/06 00:00:40;;;;;;;18.07;4.87;;;;;;;17.46;100.00;101591.84;5121157;28;20032;-55
2023/01/06 00:03:07;;;;;;;13.87;4.33;;;;;;;17.61;100.00;101589.63;5122588;28;20036;-53
2023/01/06 00:05:33;;;;;;;13.47;3.80;;;;;;;17.46;100.00;101586.44;5104596;28;20032;-51
2023/01/06 00:07:59;;;;;;;13.97;4.47;;;;;;;17.37;100.00;101585.88;5115882;28;20302;-52
2023/01/06 00:10:26;;;;;;;11.02;3.83;;;;;;;19.02;100.00;101586.09;5121140;28;20036;-53
2023/01/06 00:12:52;;;;;;;17.37;4.43;;;;;;;18.28;100.00;101573.66;5117891;28;20414;-54
2023/01/06 00:15:19;;;;;;;18.17;4.80;;;;;;;18.05;100.00;101578.72;5120164;28;20269;-51
2023/01/06 00:17:44;;;;;;;15.95;4.43;;;;;;;17.75;100.00;101584.03;5118041;28;20059;-53
2023/01/06 00:20:11;;;;;;;14.43;6.33;;;;;;;18.05;100.00;101586.03;5117465;28;20027;-53
2023/01/06 00:22:41;;;;;;;12.73;6.10;;;;;;;17.77;100.00;101577.38;5117808;28;20052;-50
2023/01/06 00:25:09;;;;;;;11.83;5.97;;;;;;;17.56;100.00;101589.47;5116243;28;20775;-53
2023/01/06 00:27:34;;;;;;;15.67;5.60;;;;;;;17.59;100.00;101580.91;5126147;28;20328;-50
2023/01/06 00:30:01;;;;;;;18.77;6.13;;;;;;;17.31;100.00;101576.81;5121838;28;20256;-51
2023/01/06 00:32:27;;;;;;;13.43;5.65;;;;;;;17.90;100.00;101576.38;5119112;28;20040;-52
2023/01/06 00:34:52;;;;;;;15.90;7.03;;;;;;;17.83;100.00;101572.94;5117839;28;20048;-53
2023/01/06 00:37:18;;;;;;;12.48;5.32;;;;;;;17.89;100.00;101571.22;5117440;28;20104;-54
2023/01/06 00:39:44;;;;;;;6.93;4.80;;;;;;;17.72;100.00;101576.38;5118840;28;20090;-52
2023/01/06 00:42:11;;;;;;;13.87;5.97;;;;;;;17.73;100.00;101578.03;5098132;28;20100;-51
2023/01/06 00:44:38;;;;;;;13.45;5.47;;;;;;;17.40;100.00;101568.41;5118684;28;20272;-54
2023/01/06 00:47:06;;;;;;;13.20;5.13;;;;;;;17.88;100.00;101573.06;5117405;28;20030;-55
2023/01/06 00:49:32;;;;;;;18.97;5.17;;;;;;;17.73;100.00;101570.75;5080674;28;22884;-52
2023/01/06 00:51:58;;;;;;;9.73;5.57;;;;;;;17.32;100.00;101562.25;5117370;28;20303;-51
2023/01/06 00:54:24;;;;;;;8.65;4.53;;;;;;;17.04;100.00;101576.22;5124885;28;20036;-52
2023/01/06 00:56:51;;;;;;;16.33;5.20;;;;;;;17.40;100.00;101573.81;5116351;28;20091;-55
2023/01/06 00:59:22;;;;;;;8.77;4.63;;;;;;;17.38;100.00;101568.63;5093724;28;20036;-54
2023/01/06 01:01:50;;;;;;;11.80;5.20;;;;;;;17.59;100.00;101569.25;5116115;28;20275;-55
2023/01/06 01:04:17;;;;;;;13.70;5.30;;;;;;;18.02;100.00;101578.38;5113563;28;20273;-52
2023/01/06 01:06:44;;;;;;;10.93;4.95;;;;;;;19.37;100.00;101592.59;5114011;28;20268;-55
2023/01/06 01:09:14;;;;;;;13.33;6.07;;;;;;;21.57;100.00;101576.25;5117898;28;20055;-53
2023/01/06 01:14:23;;;;;;;15.27;5.30;;;;;;;18.33;100.00;101574.59;5105439;28;20280;-55
2023/01/06 01:16:49;;;;;;;11.73;4.68;;;;;;;18.52;100.00;101571.03;5089860;28;20276;-51
2023/01/06 01:19:16;;;;;;;11.95;5.25;;;;;;;17.24;100.00;101573.34;5109380;28;20051;-54
2023/01/06 01:21:43;;;;;;;12.83;5.37;;;;;;;17.51;100.00;101559.53;5092669;28;20062;-50
2023/01/06 01:24:09;;;;;;;11.57;4.80;;;;;;;17.43;100.00;101562.56;5109330;28;20268;-51
2023/01/06 01:26:34;;;;;;;13.73;5.35;;;;;;;17.45;100.00;101560.44;5106749;28;20032;-54
2023/01/06 01:29:00;;;;;;;9.30;5.17;;;;;;;17.27;100.00;101562.06;5108731;28;20039;-54
2023/01/06 01:31:26;;;;;;;11.48;5.00;;;;;;;17.74;100.00;101556.19;5109796;28;20035;-55
2023/01/06 01:33:51;;;;;;;8.30;4.25;;;;;;;17.51;100.00;101540.63;5090764;28;20098;-53
2023/01/06 01:36:19;;;;;;;9.63;4.47;;;;;;;17.68;100.00;101551.69;5115428;28;20057;-53
2023/01/06 01:38:44;;;;;;;8.77;4.30;;;;;;;16.87;100.00;101551.59;5109852;28;20277;-53
2023/01/06 01:41:13;;;;;;;9.07;4.30;;;;;;;17.20;100.00;101547.81;5110777;28;20040;-54
2023/01/06 01:43:51;;;;;;;8.23;4.37;;;;;;;17.62;100.00;101533.63;5112210;28;20087;-57
2023/01/06 01:46:32;;;;;;;7.43;3.40;;;;;;;17.14;100.00;101532.47;5118644;28;20316;-56
2023/01/06 01:49:09;;;;;;;9.93;3.20;;;;;;;17.06;100.00;101537.09;5119584;28;20286;-51
2023/01/06 01:51:38;;;;;;;;;;;;;;;16.81;100.00;101537.09;5119305;28;20337;-52
2023/01/06 01:54:07;;;;;;;7.67;2.77;;;;;;;17.04;100.00;101536.50;5115590;28;19923;-52
2023/01/06 01:56:36;;;;;;;10.97;2.77;;;;;;;17.01;100.00;101520.75;5119350;28;20272;-50
2023/01/06 01:59:15;;;;;;;8.37;3.07;;;;;;;17.14;100.00;101540.59;5100617;28;20291;-52
2023/01/06 02:01:41;;;;;;;5.70;2.90;;;;;;;17.09;100.00;101537.75;5120845;28;20313;-50
2023/01/06 02:04:08;;;;;;;11.18;3.33;;;;;;;17.03;100.00;101537.56;5117327;28;20283;-55
2023/01/06 02:06:39;;;;;;;11.47;2.57;;;;;;;16.99;100.00;101539.03;5102819;28;20051;-51
2023/01/06 02:09:26;;;;;;;7.93;2.47;;;;;;;16.78;100.00;101535.66;5116232;28;20272;-54
2023/01/06 02:11:53;;;;;;;5.87;3.03;;;;;;;17.44;100.00;101540.72;5117893;28;20285;-55
2023/01/06 02:14:21;;;;;;;12.35;2.67;;;;;;;17.08;100.00;101530.69;5097130;28;20265;-51
2023/01/06 02:17:11;;;;;;;6.57;2.47;;;;;;;16.59;100.00;101532.06;5115475;28;20034;-49
2023/01/06 02:20:02;;;;;;;8.00;2.03;;;;;;;17.00;100.00;101524.50;5122272;28;20310;-51
2023/01/06 02:22:43;;;;;;;5.50;2.33;;;;;;;17.39;100.00;101528.91;5116341;28;20283;-51
2023/01/06 02:25:51;;;;;;;7.30;2.77;;;;;;;17.23;100.00;101516.81;5099100;28;20697;-53
2023/01/06 02:28:37;;;;;;;6.23;2.07;;;;;;;17.30;100.00;101504.03;5092508;28;20336;-55
2023/01/06 02:31:37;;;;;;;10.80;2.40;;;;;;;17.79;100.00;101506.81;5116300;28;20273;-52
2023/01/06 02:34:25;;;;;;;6.23;2.27;;;;;;;17.09;100.00;101497.19;5104559;28;20287;-53
2023/01/06 02:37:12;;;;;;;8.67;3.83;;;;;;;17.32;100.00;101489.25;5115214;28;20286;-50
2023/01/06 02:40:03;;;;;;;9.35;3.67;;;;;;;17.40;100.00;101492.72;5097947;28;20314;-50
2023/01/06 02:42:33;;;;;;;9.67;2.93;;;;;;;17.19;100.00;101479.41;5114443;28;20063;-53
2023/01/06 02:45:22;;;;;;;7.30;2.93;;;;;;;17.04;100.00;101484.34;5097055;28;20264;-56
2023/01/06 02:48:07;;;;;;;7.17;3.40;;;;;;;17.08;100.00;101482.03;5093524;28;20267;-51
2023/01/06 02:51:02;;;;;;;6.67;1.90;;;;;;;16.96;100.00;101495.41;5098316;28;20265;-53
2023/01/06 02:53:40;;;;;;;3.97;1.70;;;;;;;17.35;100.00;101496.06;5088542;28;20281;-53
2023/01/06 02:56:06;;;;;;;4.03;1.90;;;;;;;16.89;100.00;101484.69;5108611;28;20257;-55
2023/01/06 02:58:39;;;;;;;5.43;1.70;;;;;;;17.55;100.00;101476.09;5089755;28;20315;-50
2023/01/06 03:01:14;;;;;;;9.07;2.40;;;;;;;17.16;100.00;101466.34;5103942;28;20302;-54
2023/01/06 03:03:43;;;;;;;7.00;1.93;;;;;;;17.02;100.00;101457.53;5119170;28;20256;-55
2023/01/06 03:06:16;;;;;;;5.57;2.00;;;;;;;17.20;100.00;101450.50;5116628;28;20387;-55
2023/01/06 03:08:44;;;;;;;6.93;2.00;;;;;;;17.37;100.00;101452.63;5118494;28;20330;-53
2023/01/06 03:11:11;;;;;;;5.57;1.87;;;;;;;18.94;100.00;101459.06;5102199;28;20428;-54
2023/01/06 03:13:49;;;;;;;14.98;2.28;;;;;;;20.81;100.00;101460.69;5100232;28;20323;-55
2023/01/06 03:16:17;;;;;;;9.30;2.47;;;;;;;21.30;98.77;101444.50;5098297;28;20058;-54
2023/01/06 03:18:45;;;;;;;4.35;2.65;;;;;;;21.27;98.01;101452.31;5101065;28;20281;-54
2023/01/06 03:21:15;;;;;;;9.57;2.50;;;;;;;20.91;99.52;101458.09;5116942;28;20055;-54
2023/01/06 03:23:44;;;;;;;6.87;2.70;;;;;;;20.95;100.00;101447.56;5101585;28;20272;-55
2023/01/06 03:26:10;;;;;;;4.33;1.90;;;;;;;21.02;99.65;101437.31;5105394;28;20268;-51
2023/01/06 03:28:36;;;;;;;9.77;3.33;;;;;;;21.18;97.55;101436.44;5103763;28;20359;-54
2023/01/06 03:31:13;;;;;;;4.30;2.47;;;;;;;20.04;100.00;101436.59;5106432;28;20138;-55
2023/01/06 03:33:47;;;;;;;5.83;3.13;;;;;;;19.08;100.00;101443.41;5120250;28;20269;-51
2023/01/06 03:36:41;;;;;;;8.57;3.13;;;;;;;19.02;100.00;101437.88;5102358;28;20291;-54
2023/01/06 03:39:29;;;;;;;6.83;2.83;;;;;;;19.76;100.00;101430.09;5106165;28;20272;-54
2023/01/06 03:45:01;;;;;;;5.47;2.50;;;;;;;19.53;100.00;101429.13;5102242;28;20291;-56
2023/01/06 03:47:40;;;;;;;7.40;2.60;;;;;;;19.00;100.00;101458.13;5104862;28;20261;-54
2023/01/06 03:50:18;;;;;;;5.87;2.20;;;;;;;19.47;100.00;101420.06;5110851;28;20283;-54
2023/01/06 03:53:03;;;;;;;7.27;2.20;;;;;;;17.69;100.00;101419.97;5100099;28;20287;-54
2023/01/06 03:55:32;;;;;;;8.57;1.80;;;;;;;16.69;100.00;101411.91;5118986;28;20277;-50
2023/01/06 03:58:00;;;;;;;5.23;1.83;;;;;;;17.13;100.00;101411.94;5125480;28;20264;-53
2023/01/06 04:00:30;;;;;;;5.97;1.60;;;;;;;17.33;100.00;101404.41;5099728;28;20302;-53
2023/01/06 04:03:01;;;;;;;7.40;2.03;;;;;;;16.91;100.00;101391.53;5104991;28;20272;-51
2023/01/06 04:05:28;;;;;;;6.03;1.75;;;;;;;17.37;100.00;101393.94;5117542;28;20341;-52
2023/01/06 04:07:55;;;;;;;8.43;2.20;;;;;;;18.76;100.00;101383.09;5105386;28;20020;-52
2023/01/06 04:10:22;;;;;;;5.00;1.50;;;;;;;16.87;100.00;101387.63;5101647;28;20315;-54
2023/01/06 04:12:51;;;;;;;7.03;1.70;;;;;;;16.92;100.00;101376.16;5100439;28;20280;-55
2023/01/06 04:15:23;;;;;;;4.00;1.73;;;;;;;16.72;100.00;101373.66;5109583;28;20280;-52
2023/01/06 04:17:51;;;;;;;6.27;2.13;;;;;;;16.76;100.00;101362.19;5102633;28;20265;-55
2023/01/06 04:20:26;;;;;;;11.23;1.80;;;;;;;16.96;100.00;101381.97;5098836;28;20298;-56
2023/01/06 04:23:07;;;;;;;7.57;1.43;;;;;;;16.83;100.00;101366.69;5101349;28;20347;-53
2023/01/06 04:25:36;;;;;;;5.07;1.63;;;;;;;17.01;100.00;101352.41;5095158;28;20322;-55
2023/01/06 04:28:07;;;;;;;9.60;2.20;;;;;;;16.69;100.00;101361.44;5119085;28;20261;-53
2023/01/06 04:30:33;;;;;;;4.63;2.05;;;;;;;17.15;100.00;101358.47;5118355;28;21105;-54
2023/01/06 04:32:59;;;;;;;5.28;1.90;;;;;;;17.01;100.00;101349.72;5124299;28;20099;-51
2023/01/06 04:35:25;;;;;;;6.72;2.28;;;;;;;16.82;100.00;101348.84;5120901;28;20063;-55
2023/01/06 04:37:51;;;;;;;7.45;1.80;;;;;;;16.80;100.00;101345.53;5111452;28;20058;-51
2023/01/06 04:40:16;;;;;;;6.47;1.90;;;;;;;16.88;100.00;101346.06;5115532;28;20104;-54
2023/01/06 04:45:25;;;;;;;5.43;2.10;;;;;;;17.19;100.00;101348.84;5133241;28;20046;-54
2023/01/06 04:47:51;;;;;;;4.80;2.10;;;;;;;16.49;100.00;101351.66;5119079;28;20260;-51
2023/01/06 04:50:17;;;;;;;5.23;2.40;;;;;;;16.23;100.00;101341.94;5122169;28;20035;-54
2023/01/06 04:52:42;;;;;;;3.30;1.97;;;;;;;16.41;100.00;101340.31;5122185;28;20289;-54
2023/01/06 04:55:08;;;;;;;5.70;2.67;;;;;;;18.02;100.00;101342.94;5119517;28;20087;-53
2023/01/06 04:57:34;;;;;;;7.82;3.10;;;;;;;17.41;100.00;101332.97;5126727;28;20032;-53
2023/01/06 04:59:59;;;;;;;6.20;2.63;;;;;;;17.52;100.00;101363.00;5116160;28;20042;-52
2023/01/06 05:02:25;;;;;;;6.10;2.63;;;;;;;17.46;100.00;101332.28;5118940;28;20036;-53
2023/01/06 05:04:50;;;;;;;8.73;2.17;;;;;;;18.37;100.00;101325.88;5126764;28;20066;-54
2023/01/06 05:07:16;;;;;;;4.15;1.83;;;;;;;18.37;100.00;101323.16;5119400;28;20024;-54
2023/01/06 05:09:41;;;;;;;4.50;2.03;;;;;;;17.15;100.00;101307.13;5119456;28;20036;-54
2023/01/06 05:12:07;;;;;;;4.30;1.40;;;;;;;16.66;100.00;101324.09;5121977;28;20375;-54
2023/01/06 05:14:32;;;;;;;4.13;2.00;;;;;;;17.15;100.00;101305.22;5123085;28;20031;-54
2023/01/06 05:16:58;;;;;;;4.45;2.00;;;;;;;16.88;100.00;101302.03;5122145;28;20367;-51
2023/01/06 05:19:24;;;;;;;5.18;2.03;;;;;;;16.46;100.00;101298.13;5114238;28;20044;-51
2023/01/06 05:21:49;;;;;;;3.60;1.97;;;;;;;16.63;100.00;101301.06;5102091;28;20040;-53
2023/01/06 05:24:15;;;;;;;10.15;2.05;;;;;;;17.11;100.00;101303.25;5117465;28;20039;-48
2023/01/06 05:26:41;;;;;;;3.58;1.98;;;;;;;16.61;100.00;101316.66;5114434;28;20053;-56
2023/01/06 05:29:06;;;;;;;3.60;1.30;;;;;;;16.73;100.00;101311.34;5117387;28;20051;-54
2023/01/06 05:31:32;;;;;;;4.32;1.45;;;;;;;16.71;100.00;101310.72;5118369;28;20038;-50
2023/01/06 05:33:57;;;;;;;2.43;1.20;;;;;;;16.63;100.00;101301.06;5119623;28;20077;-49
2023/01/06 05:36:23;;;;;;;1.80;1.33;;;;;;;20.23;100.00;101306.88;5115324;28;20268;-53
2023/01/06 05:38:53;;;;;;;3.30;1.30;;;;;;;17.06;100.00;101318.22;5119207;28;20023;-53
2023/01/06 05:41:19;;;;;;;3.20;1.77;;;;;;;16.86;100.00;101304.13;5119574;28;20040;-50
2023/01/06 05:43:44;;;;;;;6.43;1.30;;;;;;;16.62;100.00;101306.69;5116210;28;20271;-55
2023/01/06 05:46:10;;;;;;;8.10;1.53;;;;;;;16.99;100.00;101317.50;5118164;28;20103;-51
2023/01/06 05:48:37;;;;;;;4.53;1.38;;;;;;;16.69;100.00;101309.31;5117900;28;20039;-54
2023/01/06 05:51:04;;;;;;;2.72;1.17;;;;;;;17.24;100.00;101308.44;5116001;28;20032;-54
2023/01/06 05:53:35;;;;;;;5.10;1.80;;;;;;;17.29;100.00;101315.88;5116224;28;20121;-53
2023/01/06 05:56:06;;;;;;;2.73;1.60;;;;;;;16.60;100.00;101297.97;5111666;28;20272;-51
2023/01/06 05:58:35;;;;;;;4.10;1.40;;;;;;;16.60;100.00;101315.00;5120383;28;20272;-52
2023/01/06 06:01:03;;;;;;;2.10;1.37;;;;;;;16.36;100.00;101305.91;5125829;28;20275;-51
2023/01/06 06:03:30;;;;;;;3.23;1.40;;;;;;;18.08;100.00;101312.22;5117437;28;20267;-52
2023/01/06 06:06:01;;;;;;;2.03;1.47;;;;;;;17.70;100.00;101316.97;5128618;28;20295;-55
2023/01/06 06:08:27;;;;;;;3.67;1.20;;;;;;;17.65;100.00;101319.53;5114380;28;20261;-53
2023/01/06 06:10:53;;;;;;;3.65;1.92;;;;;;;16.61;100.00;101303.16;5122122;28;20256;-52
2023/01/06 06:13:18;;;;;;;6.33;1.90;;;;;;;17.20;100.00;101310.81;5115836;28;20048;-54
2023/01/06 06:15:44;;;;;;;5.83;1.67;;;;;;;17.71;100.00;101301.53;5116066;28;20295;-54
2023/01/06 06:18:09;;;;;;;2.43;1.40;;;;;;;17.89;100.00;101298.75;5121255;28;20040;-52
2023/01/06 06:20:35;;;;;;;3.58;1.60;;;;;;;17.27;100.00;101297.19;5117611;28;20039;-52
2023/01/06 06:23:00;;;;;;;6.93;2.10;;;;;;;16.73;100.00;101292.44;5120214;28;20043;-52
2023/01/06 06:25:26;;;;;;;3.27;1.77;;;;;;;15.87;100.00;101309.19;5118363;28;20108;-55
2023/01/06 06:27:56;;;;;;;3.45;2.00;;;;;;;16.22;100.00;101290.91;5122612;28;20087;-52
2023/01/06 06:30:21;;;;;;;8.13;2.33;;;;;;;16.52;100.00;101288.31;5099904;28;20062;-52
2023/01/06 06:32:47;;;;;;;5.37;2.10;;;;;;;18.16;100.00;101292.09;5123864;28;20327;-51
2023/01/06 06:35:12;;;;;;;3.23;1.50;;;;;;;17.39;100.00;101288.31;5124497;28;20078;-55
2023/01/06 06:37:38;;;;;;;7.88;2.47;;;;;;;16.45;100.00;101312.69;5122740;28;20024;-54
2023/01/06 06:40:04;;;;;;;4.33;1.67;;;;;;;16.24;100.00;101288.81;5121122;28;20039;-51
2023/01/06 06:42:30;;;;;;;4.80;2.20;;;;;;;16.44;100.00;101297.53;5117918;28;20035;-54
2023/01/06 06:44:56;;;;;;;4.97;2.08;;;;;;;16.71;100.00;101299.94;5120717;28;20099;-54
2023/01/06 06:47:21;;;;;;;3.10;1.90;;;;;;;16.34;100.00;101297.19;5107471;28;20051;-54
2023/01/06 06:49:47;;;;;;;2.40;1.67;;;;;;;16.27;100.00;101310.78;5126990;28;20275;-50
2023/01/06 06:52:12;;;;;;;4.03;2.23;;;;;;;16.33;100.00;101300.94;5125575;28;20291;-53
2023/01/06 06:54:38;;;;;;;4.25;2.40;;;;;;;16.12;100.00;101299.50;5107211;28;20036;-54
2023/01/06 06:57:03;;;;;;;10.07;3.03;;;;;;;15.98;100.00;101299.59;5121973;28;20040;-52
2023/01/06 06:59:29;;;;;;;3.17;2.40;;;;;;;16.25;100.00;101306.66;5124067;28;20047;-53
2023/01/06 07:01:55;;;;;;;3.35;2.50;;;;;;;16.20;100.00;101318.94;5119645;28;20074;-58
2023/01/06 07:04:20;;;;;;;6.67;2.57;;;;;;;16.42;100.00;101306.88;5121472;28;20047;-53
2023/01/06 07:06:46;;;;;;;3.78;2.70;;;;;;;16.42;100.00;101323.09;5126155;28;20091;-53
2023/01/06 07:09:12;;;;;;;6.03;3.33;;;;;;;16.35;100.00;101320.44;5099518;28;20035;-51
2023/01/06 07:11:37;;;;;;;6.77;3.03;;;;;;;16.13;100.00;101318.16;5106498;28;20028;-56
2023/01/06 07:14:03;;;;;;;6.53;3.33;;;;;;;16.40;100.00;101315.22;5105384;28;20039;-53
2023/01/06 07:16:29;;;;;;;8.05;3.60;;;;;;;16.02;100.00;101311.59;5128707;28;20052;-51
2023/01/06 07:18:55;;;;;;;8.30;4.17;;;;;;;16.24;100.00;101322.00;5118702;28;20050;-54
2023/01/06 07:21:21;;;;;;;10.87;4.03;;;;;;;16.07;100.00;101313.63;5123897;28;20272;-50
2023/01/06 07:23:46;;;;;;;8.00;4.35;;;;;;;16.28;100.00;101330.47;5127877;28;20032;-55
2023/01/06 07:26:14;;;;;;;9.27;4.43;;;;;;;16.12;100.00;101321.09;5124565;28;20095;-51
2023/01/06 07:28:40;;;;;;;7.80;5.03;;;;;;;16.10;100.00;101326.69;5120892;28;20032;-51
2023/01/06 07:31:05;;;;;;;9.87;5.27;;;;;;;16.83;100.00;101335.13;5120288;28;20273;-51
2023/01/06 07:33:30;;;;;;;8.63;5.97;;;;;;;16.10;100.00;101342.88;5124337;28;20364;-52
2023/01/06 07:35:57;;;;;;;11.73;6.80;;;;;;;15.83;100.00;101353.84;5118029;28;20096;-55
2023/01/06 07:38:22;;;;;;;16.15;6.75;;;;;;;16.12;100.00;101350.75;5119955;28;20028;-53
2023/01/06 07:40:48;;;;;;;;;;;;;;;15.51;100.00;101361.09;5122023;28;20032;-59
2023/01/06 07:43:15;;;;;;;15.20;7.53;;;;;;;15.88;100.00;101372.91;5118711;28;19920;-52
2023/01/06 07:45:41;;;;;;;12.13;7.87;;;;;;;15.87;100.00;101357.75;5120960;28;20040;-54
2023/01/06 07:48:07;;;;;;;15.98;8.15;;;;;;;15.81;100.00;101379.38;5124015;28;20297;-56
2023/01/06 07:50:33;;;;;;;77.60;11.30;;;;;;;15.88;100.00;101386.41;5120749;28;20035;-57
2023/01/06 07:53:01;;;;;;;53.50;10.97;;;;;;;16.34;100.00;101392.50;5104599;28;20040;-59
2023/01/06 07:55:27;;;;;;;25.83;12.23;;;;;;;15.77;100.00;101397.84;5126084;28;20034;-60
2023/01/06 07:57:53;;;;;;;18.27;9.90;;;;;;;16.12;100.00;101394.72;5127604;28;20261;-60
2023/01/06 08:00:18;;;;;;;17.95;10.00;;;;;;;17.61;100.00;101404.88;5118381;28;20047;-59
2023/01/06 08:02:43;;;;;;;15.00;9.65;;;;;;;18.25;100.00;101404.38;5123136;28;20065;-59
2023/01/06 08:05:09;;;;;;;16.75;9.98;;;;;;;18.49;100.00;101412.53;5121137;28;20062;-54
2023/01/06 08:07:35;;;;;;;16.13;9.43;;;;;;;18.33;100.00;101417.56;5117928;28;20057;-57
2023/01/06 08:10:00;;;;;;;17.07;10.40;;;;;;;17.48;100.00;101412.13;5124941;28;20354;-58
2023/01/06 08:12:26;;;;;;;12.65;7.93;;;;;;;17.97;100.00;101415.81;5102763;28;20039;-56
2023/01/06 08:14:51;;;;;;;11.40;6.57;;;;;;;19.51;100.00;101428.56;5116959;28;20039;-55
2023/01/06 08:17:17;;;;;;;11.10;6.17;;;;;;;17.86;100.00;101429.09;5122274;28;20347;-54
2023/01/06 08:19:43;;;;;;;12.48;7.07;;;;;;;17.74;100.00;101430.91;5125007;28;20043;-59
2023/01/06 08:22:08;;;;;;;13.57;7.10;;;;;;;17.06;100.00;101426.31;5118753;28;20048;-54
2023/01/06 08:24:34;;;;;;;15.27;7.75;;;;;;;16.84;100.00;101436.72;5117274;28;20028;-54
2023/01/06 08:27:00;;;;;;;22.57;9.23;;;;;;;16.45;100.00;101436.00;5121645;28;20126;-58
2023/01/06 08:29:25;;;;;;;24.17;9.70;;;;;;;17.04;100.00;101444.63;5120856;28;20280;-54
2023/01/06 08:31:51;;;;;;;26.93;9.93;;;;;;;16.25;100.00;101446.97;5118428;28;20028;-53
2023/01/06 08:34:17;;;;;;;22.25;8.43;;;;;;;17.40;100.00;101457.56;5087273;28;20120;-56
2023/01/06 08:36:44;;;;;;;43.42;9.82;;;;;;;17.82;100.00;101464.94;5078669;28;20041;-55
2023/01/06 08:39:11;;;;;;;15.77;7.60;;;;;;;18.05;100.00;101480.47;5079184;28;20043;-56
2023/01/06 08:41:38;;;;;;;22.13;7.83;;;;;;;16.45;100.00;101471.94;5074686;28;20060;-57
2023/01/06 08:44:03;;;;;;;20.95;7.30;;;;;;;16.62;100.00;101468.72;5080120;28;20284;-57
2023/01/06 08:46:29;;;;;;;16.30;6.47;;;;;;;16.07;100.00;101470.13;5069671;28;20040;-56
2023/01/06 08:48:56;;;;;;;9.82;4.70;;;;;;;16.26;100.00;101476.44;5073930;28;20043;-58
2023/01/06 08:51:23;;;;;;;14.50;5.17;;;;;;;15.92;100.00;101478.50;5068037;28;20064;-54
2023/01/06 08:53:49;;;;;;;;;;;;;;;16.05;100.00;101483.84;5064568;28;20274;-56
2023/01/06 08:56:18;;;;;;;14.48;5.53;;;;;;;17.80;100.00;101484.13;5071574;28;19913;-53
2023/01/06 08:58:49;;;;;;;12.03;4.90;;;;;;;16.14;100.00;101494.38;5072129;28;20033;-57
2023/01/06 09:01:17;;;;;;;17.43;5.20;;;;;;;16.73;100.00;101494.97;5077491;28;20280;-52
2023/01/06 09:03:42;;;;;;;16.17;5.30;;;;;;;16.07;100.00;101505.19;5074260;28;20262;-55
2023/01/06 09:06:08;;;;;;;12.20;4.72;;;;;;;18.27;100.00;101512.44;5075174;28;20289;-55
2023/01/06 09:08:33;;;;;;;21.93;6.97;;;;;;;17.86;100.00;101509.41;5078545;28;20033;-51
2023/01/06 09:11:07;;;;;;;18.20;6.13;;;;;;;17.41;100.00;101508.69;5074316;28;20037;-55
2023/01/06 09:13:33;;;;;;;24.47;6.07;;;;;;;17.55;100.00;101513.97;5068901;28;20387;-56
2023/01/06 09:15:59;;;;;;;21.45;5.78;;;;;;;18.76;100.00;101512.28;5069672;28;20760;-55
2023/01/06 09:18:24;;;;;;;23.93;5.87;;;;;;;17.87;100.00;101511.91;5070757;28;20032;-57
2023/01/06 09:20:50;;;;;;;17.20;4.38;;;;;;;17.73;100.00;101519.38;5076253;28;20096;-54
2023/01/06 09:23:15;;;;;;;8.07;3.70;;;;;;;18.45;100.00;101531.34;5072728;28;20048;-55
2023/01/06 09:25:40;;;;;;;9.90;3.97;;;;;;;18.81;100.00;101526.00;5065241;28;20279;-54
2023/01/06 09:28:06;;;;;;;21.23;4.57;;;;;;;17.91;100.00;101520.41;5068756;28;20044;-56
2023/01/06 09:30:32;;;;;;;13.40;3.53;;;;;;;17.15;100.00;101526.03;5074117;28;20040;-56
2023/01/06 09:32:57;;;;;;;15.93;3.97;;;;;;;17.56;100.00;101529.13;5068111;28;20121;-56
2023/01/06 09:35:23;;;;;;;15.43;3.40;;;;;;;17.41;100.00;101529.50;5107769;28;20039;-54
2023/01/06 09:37:49;;;;;;;19.53;3.90;;;;;;;18.43;100.00;101530.72;5109351;28;20036;-54
2023/01/06 09:40:28;;;;;;;6.53;2.85;;;;;;;17.90;100.00;101546.63;5112709;28;20028;-52
2023/01/06 09:42:57;;;;;;;16.30;3.00;;;;;;;18.68;100.00;101543.25;5111419;28;20043;-54
2023/01/06 09:45:34;;;;;;;14.47;2.63;;;;;;;19.54;100.00;101549.34;5117536;28;20253;-52
2023/01/06 09:48:04;;;;;;;13.10;2.60;;;;;;;21.15;100.00;101572.94;5117418;28;20954;-56
2023/01/06 09:50:36;;;;;;;9.73;1.90;;;;;;;21.51;100.00;101564.47;5120160;28;20017;-54
2023/01/06 09:53:09;;;;;;;9.47;2.37;;;;;;;21.91;100.00;101568.81;5115697;28;20055;-53
2023/01/06 09:55:40;;;;;;;16.53;2.13;;;;;;;22.37;100.00;101575.81;5122314;28;20024;-55
2023/01/06 09:58:17;;;;;;;7.10;2.00;;;;;;;21.47;100.00;101579.66;5103470;28;20028;-57
2023/01/06 10:00:50;;;;;;;11.47;1.80;;;;;;;21.89;100.00;101576.38;5118631;28;20038;-53
2023/01/06 10:03:21;;;;;;;11.20;1.87;;;;;;;22.11;100.00;101575.53;5124993;28;20044;-50
2023/01/06 10:06:06;;;;;;;11.63;1.77;;;;;;;21.17;100.00;101586.28;5125445;28;20024;-54
2023/01/06 10:08:41;;;;;;;10.90;2.50;;;;;;;21.82;100.00;101580.41;5126392;28;20038;-53
2023/01/06 10:11:17;;;;;;;10.00;2.43;;;;;;;22.83;100.00;101585.50;5121389;28;20057;-51
2023/01/06 10:13:55;;;;;;;9.85;2.00;;;;;;;22.26;100.00;101596.69;5119810;28;20028;-54
2023/01/06 10:16:27;;;;;;;8.70;1.50;;;;;;;23.76;97.22;101610.72;5125134;28;20044;-53
2023/01/06 10:19:14;;;;;;;8.97;2.43;;;;;;;22.47;100.00;101597.75;5123241;28;20044;-53
2023/01/06 10:21:45;;;;;;;5.85;1.20;;;;;;;22.27;100.00;101597.50;5120448;28;20035;-52
2023/01/06 10:24:40;;;;;;;12.10;2.03;;;;;;;22.01;98.33;101599.94;5121888;28;20039;-52
2023/01/06 10:27:26;;;;;;;9.23;1.90;;;;;;;22.43;100.00;101591.16;5120697;28;20499;-52
2023/01/06 10:29:54;;;;;;;6.10;1.10;;;;;;;23.45;94.34;101600.44;5118610;28;20039;-51
2023/01/06 10:32:21;;;;;;;5.57;1.40;;;;;;;22.93;99.90;101585.59;5123736;28;20020;-55
2023/01/06 10:34:49;;;;;;;15.20;2.13;;;;;;;23.59;89.41;101605.41;5121344;28;20044;-52
2023/01/06 10:37:38;;;;;;;8.30;1.57;;;;;;;23.43;91.09;101601.78;5122946;28;20057;-51
2023/01/06 10:40:20;;;;;;;7.20;1.70;;;;;;;23.86;82.75;101593.50;5125545;28;20092;-49
2023/01/06 10:42:56;;;;;;;9.10;1.87;;;;;;;24.50;94.30;101599.72;5126505;28;20024;-53
2023/01/06 10:45:26;;;;;;;8.30;2.10;;;;;;;25.61;78.25;101601.06;5108197;28;20032;-49
2023/01/06 10:47:53;;;;;;;7.60;2.53;;;;;;;26.46;73.47;101609.41;5122887;28;20043;-51
2023/01/06 10:50:19;;;;;;;9.00;1.80;;;;;;;24.97;79.18;101606.06;5122663;28;20024;-50
2023/01/06 10:52:45;;;;;;;;;;;;;;;26.00;72.49;101604.16;5124455;28;20053;-50
2023/01/06 10:55:38;;;;;;;9.00;1.23;;;;;;;26.06;70.67;101609.34;5124649;28;19986;-56
2023/01/06 10:58:16;;;;;;;13.73;1.73;;;;;;;24.18;77.01;101590.66;5122051;28;20044;-52
2023/01/06 11:01:07;;;;;;;10.03;1.77;;;;;;;23.85;78.41;101600.91;5118398;28;20036;-52
2023/01/06 11:03:34;;;;;;;7.63;1.80;;;;;;;23.83;78.15;101604.97;5126302;28;20085;-53
2023/01/06 11:06:24;;;;;;;7.93;1.77;;;;;;;24.33;77.35;101598.06;5122721;28;20036;-53
2023/01/06 11:08:49;;;;;;;6.00;1.77;;;;;;;23.56;83.92;101600.50;5121915;28;20059;-52
2023/01/06 11:11:17;;;;;;;6.93;1.70;;;;;;;23.65;84.43;101588.00;5123904;28;20043;-54
2023/01/06 11:13:49;;;;;;;9.40;2.07;;;;;;;24.79;78.63;101612.09;5125014;28;20036;-56
2023/01/06 11:16:24;;;;;;;12.57;1.63;;;;;;;23.69;78.07;101604.66;5126246;28;20056;-53
2023/01/06 11:18:56;;;;;;;9.93;1.60;;;;;;;24.15;80.85;101602.13;5121709;28;20043;-55
2023/01/06 11:21:21;;;;;;;6.53;1.00;;;;;;;24.67;79.19;101604.94;5120198;28;20046;-55
2023/01/06 11:23:48;;;;;;;10.50;1.90;;;;;;;25.97;75.03;101604.72;5123738;28;20027;-56
2023/01/06 11:26:19;;;;;;;10.47;1.50;;;;;;;24.41;80.88;101620.50;5121096;28;20042;-50
2023/01/06 11:28:47;;;;;;;6.87;1.57;;;;;;;22.74;81.63;101607.81;5115748;28;20032;-54
2023/01/06 11:31:13;;;;;;;6.10;1.57;;;;;;;23.48;83.84;101610.00;5123208;28;20051;-55
2023/01/06 11:33:50;;;;;;;7.43;2.28;;;;;;;22.43;86.16;101596.59;5124417;28;20093;-54
2023/01/06 11:36:17;;;;;;;7.50;1.90;;;;;;;22.47;86.18;101596.91;5120652;28;20032;-53